createdAt,value
2019-02-25T00:02:46.217Z,6.30
2019-02-25T00:05:48.771Z,6.80
2019-02-25T00:08:51.552Z,6.00
2019-02-25T00:11:54.112Z,6.13
2019-02-25T00:14:56.672Z,5.60
2019-02-25T00:17:59.241Z,6.13
2019-02-25T00:21:01.840Z,5.43
2019-02-25T00:24:04.912Z,6.47
2019-02-25T00:27:07.420Z,7.00
2019-02-25T00:30:13.855Z,7.47
2019-02-25T00:33:16.426Z,7.13
2019-02-25T00:36:19.187Z,6.83
2019-02-25T00:39:21.798Z,7.47
2019-02-25T00:42:24.580Z,7.47
2019-02-25T00:45:27.204Z,8.20
2019-02-25T00:48:29.867Z,8.20
2019-02-25T00:51:32.483Z,8.30
2019-02-25T00:54:35.081Z,6.70
2019-02-25T00:57:37.724Z,6.50
2019-02-25T01:00:40.291Z,7.17
2019-02-25T01:03:42.907Z,6.57
2019-02-25T01:06:45.627Z,6.80
2019-02-25T01:09:50.745Z,6.30
2019-02-25T01:12:53.325Z,7.00
2019-02-25T01:15:57.480Z,5.83
2019-02-25T01:19:00.118Z,6.13
2019-02-25T01:22:06.926Z,5.77
2019-02-25T01:25:09.988Z,6.77
2019-02-25T01:28:15.077Z,5.97
2019-02-25T01:31:17.706Z,6.00
2019-02-25T01:34:27.853Z,6.30
2019-02-25T01:37:30.474Z,6.23
2019-02-25T01:40:33.128Z,6.30
2019-02-25T01:43:35.741Z,6.00
2019-02-25T01:46:39.491Z,6.80
2019-02-25T01:49:42.254Z,5.97
2019-02-25T01:52:44.796Z,6.30
2019-02-25T01:55:47.463Z,6.60
2019-02-25T01:58:50.010Z,6.13
2019-02-25T02:01:52.575Z,6.43
2019-02-25T02:04:55.141Z,5.90
2019-02-25T02:07:57.726Z,6.50
2019-02-25T02:11:00.500Z,6.00
2019-02-25T02:14:03.325Z,7.20
2019-02-25T02:17:05.873Z,6.73
2019-02-25T02:20:09.841Z,7.20
2019-02-25T02:23:12.474Z,6.10
2019-02-25T02:26:16.321Z,6.50
2019-02-25T02:29:20.784Z,6.53
2019-02-25T02:32:23.529Z,7.03
2019-02-25T02:35:26.209Z,5.47
2019-02-25T02:38:28.884Z,5.23
2019-02-25T02:42:09.032Z,6.00
2019-02-25T02:45:38.766Z,5.90
2019-02-25T02:48:45.329Z,5.63
2019-02-25T02:51:47.923Z,6.27
2019-02-25T02:54:50.580Z,5.70
2019-02-25T02:57:53.249Z,6.53
2019-02-25T03:00:55.839Z,6.17
2019-02-25T03:03:58.485Z,5.80
2019-02-25T03:07:01.178Z,6.73
2019-02-25T03:10:05.435Z,7.53
2019-02-25T03:13:08.084Z,6.40
2019-02-25T03:16:10.867Z,6.90
2019-02-25T03:19:13.455Z,6.60
2019-02-25T03:22:16.040Z,6.10
2019-02-25T03:25:18.834Z,6.60
2019-02-25T03:28:21.634Z,6.40
2019-02-25T03:31:25.224Z,6.20
2019-02-25T03:34:28.871Z,6.33
2019-02-25T03:37:31.526Z,6.17
2019-02-25T03:40:34.361Z,6.53
2019-02-25T03:43:37.052Z,6.23
2019-02-25T03:46:39.896Z,6.77
2019-02-25T03:49:42.465Z,5.70
2019-02-25T03:52:45.099Z,6.40
2019-02-25T03:55:49.305Z,6.43
2019-02-25T03:58:51.935Z,6.47
2019-02-25T04:01:54.671Z,6.50
2019-02-25T04:04:59.141Z,6.50
2019-02-25T04:08:01.900Z,6.00
2019-02-25T04:11:04.586Z,6.23
2019-02-25T04:14:07.140Z,6.10
2019-02-25T04:17:09.732Z,5.70
2019-02-25T04:20:14.062Z,6.23
2019-02-25T04:23:16.744Z,6.07
2019-02-25T04:26:19.449Z,5.97
2019-02-25T04:29:22.102Z,6.47
2019-02-25T04:32:24.733Z,5.73
2019-02-25T04:35:27.410Z,6.23
2019-02-25T04:38:29.970Z,5.97
2019-02-25T04:41:32.629Z,6.50
2019-02-25T04:44:35.270Z,6.00
2019-02-25T04:47:37.871Z,5.80
2019-02-25T04:50:40.510Z,5.93
2019-02-25T04:53:43.276Z,5.77
2019-02-25T04:56:45.906Z,5.47
2019-02-25T04:59:48.685Z,5.53
2019-02-25T05:02:51.308Z,5.67
2019-02-25T05:05:53.889Z,5.43
2019-02-25T05:08:56.471Z,6.20
2019-02-25T05:11:59.119Z,6.30
2019-02-25T05:15:01.701Z,6.27
2019-02-25T05:18:04.358Z,6.47
2019-02-25T05:21:07.151Z,7.07
2019-02-25T05:24:09.881Z,6.33
2019-02-25T05:27:12.513Z,5.87
2019-02-25T05:30:15.182Z,6.20
2019-02-25T05:33:17.749Z,6.20
2019-02-25T05:36:20.306Z,5.80
2019-02-25T05:39:22.865Z,7.03
2019-02-25T05:42:25.529Z,6.10
2019-02-25T05:45:28.312Z,6.90
2019-02-25T05:48:31.055Z,6.10
2019-02-25T05:51:33.786Z,6.53
2019-02-25T05:54:36.571Z,6.87
2019-02-25T05:57:39.270Z,7.03
2019-02-25T06:00:42.335Z,6.70
2019-02-25T06:03:45.049Z,5.90
2019-02-25T06:06:47.582Z,6.23
2019-02-25T06:09:50.399Z,6.20
2019-02-25T06:12:54.131Z,5.60
2019-02-25T06:15:56.781Z,5.93
2019-02-25T06:18:59.351Z,6.00
2019-02-25T06:22:02.032Z,6.83
2019-02-25T06:25:05.517Z,6.33
2019-02-25T06:28:08.136Z,6.90
2019-02-25T06:31:10.846Z,5.80
2019-02-25T06:34:13.565Z,6.97
2019-02-25T06:37:16.170Z,7.10
2019-02-25T06:40:18.969Z,6.27
2019-02-25T06:43:21.610Z,6.20
2019-02-25T06:46:24.160Z,6.20
2019-02-25T06:49:26.854Z,6.77
2019-02-25T06:52:29.466Z,6.80
2019-02-25T06:55:32.116Z,6.97
2019-02-25T06:58:35.673Z,6.80
2019-02-25T07:01:39.350Z,6.23
2019-02-25T07:05:02.621Z,6.83
2019-02-25T07:08:11.033Z,7.20
2019-02-25T07:11:20.748Z,6.67
2019-02-25T07:14:38.774Z,6.40
2019-02-25T07:18:03.955Z,6.17
2019-02-25T07:21:21.859Z,6.50
2019-02-25T07:24:39.458Z,7.57
2019-02-25T07:28:16.879Z,6.50
2019-02-25T07:31:31.775Z,7.27
2019-02-25T07:34:53.898Z,6.63
2019-02-25T07:38:14.767Z,5.97
2019-02-25T07:41:34.247Z,6.37
2019-02-25T07:44:59.398Z,7.07
2019-02-25T07:48:19.590Z,6.83
2019-02-25T07:51:33.070Z,6.83
2019-02-25T07:55:01.301Z,6.80
2019-02-25T07:58:13.991Z,6.83
2019-02-25T08:01:36.048Z,6.07
2019-02-25T08:04:58.026Z,6.07
2019-02-25T08:08:15.005Z,6.90
2019-02-25T08:11:29.868Z,6.50
2019-02-25T08:15:01.218Z,6.67
2019-02-25T08:18:33.400Z,6.20
2019-02-25T08:21:47.758Z,6.60
2019-02-25T08:25:08.938Z,6.73
2019-02-25T08:28:37.192Z,6.70
2019-02-25T08:31:58.184Z,7.50
2019-02-25T08:35:29.278Z,7.90
2019-02-25T08:39:04.600Z,7.87
2019-02-25T08:42:15.729Z,7.03
2019-02-25T08:45:24.258Z,8.80
2019-02-25T08:48:40.749Z,7.80
2019-02-25T08:51:43.514Z,8.13
2019-02-25T08:54:46.068Z,8.30
2019-02-25T08:57:50.615Z,7.30
2019-02-25T09:00:53.360Z,8.33
2019-02-25T09:03:55.973Z,7.60
2019-02-25T09:06:58.578Z,8.40
2019-02-25T09:10:01.163Z,8.37
2019-02-25T09:13:05.274Z,8.50
2019-02-25T09:16:07.801Z,9.17
2019-02-25T09:19:10.494Z,11.23
2019-02-25T09:22:13.180Z,10.63
2019-02-25T09:25:15.733Z,11.03
2019-02-25T09:28:18.522Z,10.07
2019-02-25T09:31:21.267Z,11.00
2019-02-25T09:34:23.987Z,11.90
2019-02-25T09:37:27.754Z,11.27
2019-02-25T09:40:30.402Z,12.10
2019-02-25T09:43:33.105Z,10.70
2019-02-25T09:46:35.774Z,11.10
2019-02-25T09:49:38.348Z,10.27
2019-02-25T09:52:41.078Z,10.40
2019-02-25T09:55:43.756Z,10.90
2019-02-25T09:58:46.337Z,10.50
2019-02-25T10:01:49.039Z,10.33
2019-02-25T10:04:51.633Z,11.30
2019-02-25T10:07:54.380Z,11.40
2019-02-25T10:10:56.995Z,11.80
2019-02-25T10:13:59.677Z,12.13
2019-02-25T10:17:02.250Z,12.60
2019-02-25T10:20:05.575Z,11.30
2019-02-25T10:23:08.119Z,13.57
2019-02-25T10:26:10.684Z,11.83
2019-02-25T10:29:13.368Z,10.73
2019-02-25T10:32:16.013Z,12.27
2019-02-25T10:35:18.959Z,12.50
2019-02-25T10:38:21.637Z,11.53
2019-02-25T10:41:26.184Z,11.60
2019-02-25T10:44:29.710Z,11.90
2019-02-25T10:47:32.847Z,11.30
2019-02-25T10:50:35.989Z,11.73
2019-02-25T10:53:39.244Z,11.10
2019-02-25T10:56:51.576Z,11.27
2019-02-25T10:59:55.497Z,10.73
2019-02-25T11:02:58.342Z,11.00
2019-02-25T11:06:03.190Z,11.40
2019-02-25T11:09:43.976Z,10.87
2019-02-25T11:12:46.985Z,11.40
2019-02-25T11:15:50.755Z,11.10
2019-02-25T11:18:55.080Z,11.33
2019-02-25T11:21:57.876Z,11.57
2019-02-25T11:25:00.530Z,10.70
2019-02-25T11:28:05.384Z,12.03
2019-02-25T11:31:07.835Z,11.30
2019-02-25T11:34:10.630Z,12.17
2019-02-25T11:37:14.472Z,11.37
2019-02-25T11:40:17.664Z,10.37
2019-02-25T11:43:21.619Z,10.50
2019-02-25T11:46:24.404Z,11.33
2019-02-25T11:49:26.979Z,10.30
2019-02-25T11:52:29.608Z,9.60
2019-02-25T11:55:32.163Z,9.87
2019-02-25T11:58:34.753Z,10.57
2019-02-25T12:01:37.460Z,10.30
2019-02-25T12:04:40.211Z,10.90
2019-02-25T12:07:43.063Z,11.00
2019-02-25T12:10:45.628Z,10.40
2019-02-25T12:13:49.305Z,10.57
2019-02-25T12:16:51.929Z,10.57
2019-02-25T12:19:54.599Z,10.67
2019-02-25T12:22:57.157Z,10.93
2019-02-25T12:25:59.712Z,10.73
2019-02-25T12:29:10.615Z,10.20
2019-02-25T12:32:06.885Z,9.30
2019-02-25T12:35:09.739Z,10.77
2019-02-25T12:38:12.323Z,10.73
2019-02-25T12:41:15.023Z,11.27
2019-02-25T12:44:17.658Z,10.53
2019-02-25T12:47:23.632Z,12.67
2019-02-25T12:50:26.260Z,10.37
2019-02-25T12:53:28.920Z,11.33
2019-02-25T12:56:31.462Z,11.03
2019-02-25T12:59:34.024Z,11.77
2019-02-25T13:02:36.624Z,10.70
2019-02-25T13:05:39.258Z,10.93
2019-02-25T13:08:42.794Z,10.80
2019-02-25T13:11:45.570Z,10.63
2019-02-25T13:14:48.197Z,11.40
2019-02-25T13:17:51.078Z,11.60
2019-02-25T13:20:53.735Z,11.67
2019-02-25T13:23:56.949Z,12.40
2019-02-25T13:27:01.468Z,11.43
2019-02-25T13:30:07.682Z,12.03
2019-02-25T13:33:10.391Z,11.70
2019-02-25T13:36:13.200Z,12.43
2019-02-25T13:39:15.825Z,12.30
2019-02-25T13:42:18.648Z,12.20
2019-02-25T13:45:21.358Z,12.33
2019-02-25T13:48:24.057Z,11.83
2019-02-25T13:51:26.742Z,12.87
2019-02-25T13:54:29.578Z,12.37
2019-02-25T13:57:32.223Z,13.30
2019-02-25T14:00:36.523Z,13.87
2019-02-25T14:03:39.143Z,13.17
2019-02-25T14:06:42.132Z,13.80
2019-02-25T14:09:44.811Z,13.17
2019-02-25T14:12:47.697Z,13.27
2019-02-25T14:15:50.659Z,13.43
2019-02-25T14:18:53.308Z,13.93
2019-02-25T14:21:56.124Z,14.07
2019-02-25T14:24:58.915Z,14.13
2019-02-25T14:28:02.830Z,13.43
2019-02-25T14:31:06.370Z,13.07
2019-02-25T14:34:09.098Z,12.27
2019-02-25T14:37:13.408Z,14.03
2019-02-25T14:40:17.140Z,12.77
2019-02-25T14:43:22.725Z,12.10
2019-02-25T14:46:26.823Z,10.90
2019-02-25T14:49:30.132Z,11.80
2019-02-25T14:52:33.971Z,11.00
2019-02-25T14:55:36.708Z,12.23
2019-02-25T14:58:40.568Z,11.10
2019-02-25T15:01:44.078Z,11.50
2019-02-25T15:04:49.130Z,11.10
2019-02-25T15:07:53.379Z,11.87
2019-02-25T15:11:00.029Z,10.93
2019-02-25T15:14:00.967Z,12.67
2019-02-25T15:17:06.066Z,11.97
2019-02-25T15:20:10.482Z,12.20
2019-02-25T15:23:17.209Z,12.03
2019-02-25T15:26:21.534Z,11.60
2019-02-25T15:29:25.639Z,11.90
2019-02-25T15:32:29.535Z,11.90
2019-02-25T15:35:35.093Z,13.23
2019-02-25T15:38:38.892Z,11.60
2019-02-25T15:41:46.372Z,12.10
2019-02-25T15:44:51.269Z,11.60
2019-02-25T15:47:57.618Z,11.83
2019-02-25T15:51:00.773Z,11.33
2019-02-25T15:54:03.909Z,11.77
2019-02-25T15:57:06.548Z,11.70
2019-02-25T16:00:12.520Z,11.57
2019-02-25T16:03:16.367Z,12.03
2019-02-25T16:06:19.842Z,11.50
2019-02-25T16:09:25.467Z,10.83
2019-02-25T16:12:31.091Z,10.93
2019-02-25T16:15:34.244Z,11.60
2019-02-25T16:18:40.418Z,11.37
2019-02-25T16:21:43.877Z,11.90
2019-02-25T16:24:46.553Z,12.40
2019-02-25T16:27:50.475Z,11.70
2019-02-25T16:30:54.192Z,11.37
2019-02-25T16:33:57.683Z,11.67
2019-02-25T16:37:02.498Z,11.77
2019-02-25T16:40:08.291Z,11.10
2019-02-25T16:43:12.943Z,11.63
2019-02-25T16:46:16.264Z,11.67
2019-02-25T16:49:20.222Z,11.37
2019-02-25T16:52:24.765Z,11.90
2019-02-25T16:55:27.927Z,10.93
2019-02-25T16:58:34.165Z,12.17
2019-02-25T17:01:39.302Z,12.23
2019-02-25T17:04:41.559Z,12.83
2019-02-25T17:07:44.360Z,11.90
2019-02-25T17:10:51.228Z,12.07
2019-02-25T17:13:55.127Z,12.17
2019-02-25T17:16:58.597Z,12.87
2019-02-25T17:20:01.293Z,12.60
2019-02-25T17:23:04.024Z,13.30
2019-02-25T17:26:07.805Z,11.70
2019-02-25T17:29:11.314Z,12.10
2019-02-25T17:32:16.769Z,11.70
2019-02-25T17:35:20.863Z,12.10
2019-02-25T17:38:24.623Z,12.27
2019-02-25T17:41:28.512Z,12.80
2019-02-25T17:44:32.136Z,12.33
2019-02-25T17:47:39.698Z,11.80
2019-02-25T17:50:43.007Z,12.90
2019-02-25T17:53:46.408Z,12.13
2019-02-25T17:56:51.855Z,12.03
2019-02-25T17:59:55.348Z,11.93
2019-02-25T18:02:59.330Z,12.27
2019-02-25T18:06:05.094Z,12.10
2019-02-25T18:09:08.812Z,12.40
2019-02-25T18:12:12.963Z,13.00
2019-02-25T18:15:19.792Z,12.50
2019-02-25T18:18:24.518Z,12.10
2019-02-25T18:21:30.198Z,12.27
2019-02-25T18:24:33.003Z,11.63
2019-02-25T18:27:39.011Z,12.47
2019-02-25T18:30:40.299Z,11.63
2019-02-25T18:33:44.080Z,11.47
2019-02-25T18:36:49.035Z,12.10
2019-02-25T18:39:54.374Z,12.17
2019-02-25T18:43:00.240Z,12.37
2019-02-25T18:46:04.921Z,11.40
2019-02-25T18:49:09.483Z,11.90
2019-02-25T18:52:11.981Z,12.27
2019-02-25T18:55:15.628Z,13.57
2019-02-25T18:58:18.262Z,12.70
2019-02-25T19:01:21.244Z,13.07
2019-02-25T19:04:24.066Z,13.37
2019-02-25T19:07:27.300Z,12.90
2019-02-25T19:10:31.304Z,12.70
2019-02-25T19:13:34.332Z,13.70
2019-02-25T19:16:38.097Z,14.00
2019-02-25T19:19:42.459Z,13.80
2019-02-25T19:22:45.979Z,14.53
2019-02-25T19:25:50.149Z,14.73
2019-02-25T19:28:54.605Z,14.20
2019-02-25T19:32:00.638Z,13.33
2019-02-25T19:35:04.746Z,13.90
2019-02-25T19:38:07.854Z,14.20
2019-02-25T19:41:15.137Z,14.07
2019-02-25T19:44:17.128Z,12.90
2019-02-25T19:47:19.841Z,14.03
2019-02-25T19:50:22.844Z,13.90
2019-02-25T19:53:25.722Z,14.90
2019-02-25T19:56:28.649Z,13.63
2019-02-25T19:59:31.354Z,13.40
2019-02-25T20:02:35.181Z,11.97
2019-02-25T20:05:41.661Z,12.90
2019-02-25T20:08:43.302Z,13.70
2019-02-25T20:11:46.005Z,13.07
2019-02-25T20:14:48.819Z,12.70
2019-02-25T20:17:53.335Z,13.30
2019-02-25T20:20:57.602Z,12.80
2019-02-25T20:24:00.874Z,12.87
2019-02-25T20:27:05.223Z,13.87
2019-02-25T20:30:10.946Z,13.30
2019-02-25T20:33:13.550Z,13.73
2019-02-25T20:36:19.246Z,13.40
2019-02-25T20:39:20.943Z,12.73
2019-02-25T20:42:24.405Z,13.00
2019-02-25T20:45:31.052Z,13.00
2019-02-25T20:48:34.071Z,12.83
2019-02-25T20:51:36.835Z,12.20
2019-02-25T20:54:41.607Z,12.90
2019-02-25T20:57:44.415Z,12.47
2019-02-25T21:00:49.189Z,14.10
2019-02-25T21:03:54.724Z,14.90
2019-02-25T21:06:58.856Z,15.10
2019-02-25T21:10:03.524Z,15.50
2019-02-25T21:13:08.162Z,16.30
2019-02-25T21:16:10.827Z,14.70
2019-02-25T21:19:15.578Z,14.00
2019-02-25T21:22:29.483Z,14.20
2019-02-25T21:25:38.116Z,14.37
2019-02-25T21:28:43.066Z,13.67
2019-02-25T21:31:49.649Z,15.50
2019-02-25T21:34:56.056Z,14.47
2019-02-25T21:38:03.342Z,15.60
2019-02-25T21:41:13.689Z,14.03
2019-02-25T21:44:21.323Z,14.50
2019-02-25T21:47:28.601Z,14.93
2019-02-25T21:50:35.907Z,15.23
2019-02-25T21:53:41.911Z,15.20
2019-02-25T21:56:47.217Z,15.20
2019-02-25T21:59:54.171Z,15.10
2019-02-25T22:03:10.243Z,15.07
2019-02-25T22:06:13.907Z,14.30
2019-02-25T22:09:35.492Z,16.30
2019-02-25T22:12:26.848Z,14.23
2019-02-25T22:15:34.407Z,14.20
2019-02-25T22:18:41.060Z,15.20
2019-02-25T22:21:46.384Z,15.30
2019-02-25T22:24:51.792Z,14.00
2019-02-25T22:27:58.912Z,15.53
2019-02-25T22:31:08.297Z,16.07
2019-02-25T22:34:13.135Z,16.17
2019-02-25T22:37:22.819Z,16.13
2019-02-25T22:40:30.066Z,14.83
2019-02-25T22:43:37.260Z,16.30
2019-02-25T22:46:49.362Z,15.73
2019-02-25T22:49:55.417Z,15.23
2019-02-25T22:53:01.628Z,16.63
2019-02-25T22:56:11.500Z,14.83
2019-02-25T22:59:14.595Z,15.73
2019-02-25T23:02:19.958Z,14.97
2019-02-25T23:05:25.599Z,15.77
2019-02-25T23:08:31.885Z,15.97
2019-02-25T23:11:39.863Z,15.80
2019-02-25T23:14:44.135Z,15.90
2019-02-25T23:17:49.439Z,15.83
2019-02-25T23:20:59.674Z,14.97
2019-02-25T23:24:05.697Z,14.77
2019-02-25T23:27:11.110Z,14.50
2019-02-25T23:30:16.550Z,14.07
2019-02-25T23:33:22.803Z,13.87
2019-02-25T23:36:28.988Z,14.80
2019-02-25T23:39:36.259Z,14.30
2019-02-25T23:42:41.960Z,15.43
2019-02-25T23:45:48.325Z,15.30
2019-02-25T23:48:55.632Z,15.53
2019-02-25T23:52:00.616Z,14.90
2019-02-25T23:55:07.295Z,14.87
2019-02-25T23:58:14.358Z,13.87
